createdAt,value
2023-05-06T00:00:35.704Z,634.00
2023-05-06T00:01:35.745Z,634.00
2023-05-06T00:02:35.839Z,634.00
2023-05-06T00:03:35.996Z,633.00
2023-05-06T00:04:35.948Z,637.00
2023-05-06T00:05:35.976Z,639.00
2023-05-06T00:06:36.020Z,640.00
2023-05-06T00:07:36.090Z,639.00
2023-05-06T00:08:36.217Z,637.00
2023-05-06T00:09:36.291Z,637.00
2023-05-06T00:10:36.271Z,638.00
2023-05-06T00:11:36.331Z,639.00
2023-05-06T00:12:36.419Z,640.00
2023-05-06T00:13:36.466Z,639.00
2023-05-06T00:14:36.486Z,639.00
2023-05-06T00:15:36.558Z,638.00
2023-05-06T00:16:36.590Z,635.00
2023-05-06T00:17:36.679Z,635.00
2023-05-06T00:18:36.737Z,635.00
2023-05-06T00:19:36.797Z,636.00
2023-05-06T00:20:36.790Z,635.00
2023-05-06T00:21:36.860Z,636.00
2023-05-06T00:22:36.933Z,634.00
2023-05-06T00:23:36.985Z,635.00
2023-05-06T00:24:37.092Z,634.00
2023-05-06T00:25:37.146Z,634.00
2023-05-06T00:26:37.169Z,634.00
2023-05-06T00:27:37.195Z,635.00
2023-05-06T00:28:37.274Z,634.00
2023-05-06T00:29:37.312Z,632.00
2023-05-06T00:30:37.392Z,632.00
2023-05-06T00:31:37.472Z,634.00
2023-05-06T00:32:37.501Z,635.00
2023-05-06T00:33:37.558Z,637.00
2023-05-06T00:34:37.770Z,637.00
2023-05-06T00:35:37.655Z,637.00
2023-05-06T00:36:37.743Z,635.00
2023-05-06T00:37:37.763Z,635.00
2023-05-06T00:38:37.841Z,634.00
2023-05-06T00:39:37.922Z,635.00
2023-05-06T00:40:37.997Z,635.00
2023-05-06T00:41:38.007Z,636.00
2023-05-06T00:42:38.074Z,635.00
2023-05-06T00:43:38.088Z,637.00
2023-05-06T00:44:38.160Z,637.00
2023-05-06T00:45:38.267Z,641.00
2023-05-06T00:46:38.301Z,641.00
2023-05-06T00:47:38.410Z,643.00
2023-05-06T00:48:38.409Z,642.00
2023-05-06T00:49:38.489Z,643.00
2023-05-06T00:50:38.575Z,646.00
2023-05-06T00:51:38.596Z,644.00
2023-05-06T00:52:38.719Z,643.00
2023-05-06T00:53:38.747Z,642.00
2023-05-06T00:54:38.788Z,643.00
2023-05-06T00:55:38.829Z,642.00
2023-05-06T00:56:38.926Z,641.00
2023-05-06T00:57:38.943Z,641.00
2023-05-06T00:58:39.312Z,642.00
2023-05-06T00:59:39.060Z,643.00
2023-05-06T01:00:39.131Z,643.00
2023-05-06T01:01:39.231Z,641.00
2023-05-06T01:02:46.965Z,643.00
2023-05-06T01:03:40.351Z,642.00
2023-05-06T01:04:39.317Z,643.00
2023-05-06T01:05:39.200Z,642.00
2023-05-06T01:06:39.197Z,642.00
2023-05-06T01:07:39.271Z,645.00
2023-05-06T01:08:39.201Z,649.00
2023-05-06T01:09:39.180Z,651.00
2023-05-06T01:10:39.761Z,650.00
2023-05-06T01:11:39.184Z,651.00
2023-05-06T01:12:39.273Z,651.00
2023-05-06T01:13:39.220Z,648.00
2023-05-06T01:14:39.248Z,646.00
2023-05-06T01:15:39.306Z,646.00
2023-05-06T01:16:39.372Z,644.00
2023-05-06T01:17:39.439Z,642.00
2023-05-06T01:18:39.469Z,644.00
2023-05-06T01:19:39.544Z,645.00
2023-05-06T01:20:39.583Z,647.00
2023-05-06T01:21:39.681Z,647.00
2023-05-06T01:22:39.713Z,647.00
2023-05-06T01:23:39.754Z,645.00
2023-05-06T01:24:39.863Z,646.00
2023-05-06T01:25:39.889Z,648.00
2023-05-06T01:26:39.994Z,650.00
2023-05-06T01:27:40.019Z,649.00
2023-05-06T01:28:40.144Z,651.00
2023-05-06T01:29:40.131Z,654.00
2023-05-06T01:30:40.170Z,657.00
2023-05-06T01:31:40.292Z,658.00
2023-05-06T01:32:40.325Z,659.00
2023-05-06T01:33:40.350Z,658.00
2023-05-06T01:34:40.386Z,658.00
2023-05-06T01:35:40.455Z,656.00
2023-05-06T01:36:40.519Z,654.00
2023-05-06T01:37:40.628Z,651.00
2023-05-06T01:38:40.643Z,651.00
2023-05-06T01:39:40.697Z,652.00
2023-05-06T01:40:40.744Z,654.00
2023-05-06T01:41:40.789Z,656.00
2023-05-06T01:42:40.838Z,656.00
2023-05-06T01:43:40.899Z,657.00
2023-05-06T01:44:40.989Z,653.00
2023-05-06T01:45:40.980Z,654.00
2023-05-06T01:46:41.248Z,655.00
2023-05-06T01:47:41.124Z,658.00
2023-05-06T01:48:41.222Z,658.00
2023-05-06T01:49:41.224Z,656.00
2023-05-06T01:50:41.329Z,653.00
2023-05-06T01:51:41.333Z,654.00
2023-05-06T01:52:41.402Z,655.00
2023-05-06T01:53:41.440Z,655.00
2023-05-06T01:54:42.344Z,657.00
2023-05-06T01:55:41.544Z,655.00
2023-05-06T01:56:41.614Z,655.00
2023-05-06T01:57:41.650Z,657.00
2023-05-06T01:58:41.713Z,657.00
2023-05-06T01:59:41.753Z,656.00
2023-05-06T02:00:41.963Z,657.00
2023-05-06T02:01:41.924Z,657.00
2023-05-06T02:02:41.964Z,657.00
2023-05-06T02:03:42.112Z,655.00
2023-05-06T02:04:42.014Z,655.00
2023-05-06T02:05:42.066Z,654.00
2023-05-06T02:06:42.154Z,653.00
2023-05-06T02:07:42.211Z,651.00
2023-05-06T02:08:42.333Z,650.00
2023-05-06T02:09:42.316Z,651.00
2023-05-06T02:10:42.372Z,651.00
2023-05-06T02:11:42.400Z,653.00
2023-05-06T02:12:42.472Z,654.00
2023-05-06T02:13:42.626Z,656.00
2023-05-06T02:14:42.589Z,658.00
2023-05-06T02:15:42.694Z,658.00
2023-05-06T02:16:42.670Z,659.00
2023-05-06T02:17:42.767Z,656.00
2023-05-06T02:18:42.855Z,656.00
2023-05-06T02:19:42.801Z,656.00
2023-05-06T02:20:42.898Z,657.00
2023-05-06T02:21:42.943Z,655.00
2023-05-06T02:22:42.985Z,655.00
2023-05-06T02:23:43.074Z,655.00
2023-05-06T02:24:43.150Z,655.00
2023-05-06T02:25:43.179Z,654.00
2023-05-06T02:26:43.234Z,653.00
2023-05-06T02:27:43.298Z,654.00
2023-05-06T02:28:43.368Z,654.00
2023-05-06T02:29:43.416Z,653.00
2023-05-06T02:30:43.504Z,654.00
2023-05-06T02:31:43.566Z,651.00
2023-05-06T02:32:43.680Z,652.00
2023-05-06T02:33:43.690Z,653.00
2023-05-06T02:34:43.741Z,653.00
2023-05-06T02:35:43.843Z,651.00
2023-05-06T02:36:43.873Z,652.00
2023-05-06T02:37:43.926Z,650.00
2023-05-06T02:38:44.028Z,652.00
2023-05-06T02:39:44.031Z,652.00
2023-05-06T02:40:44.129Z,651.00
2023-05-06T02:41:44.208Z,650.00
2023-05-06T02:42:44.307Z,652.00
2023-05-06T02:43:44.329Z,653.00
2023-05-06T02:44:44.394Z,653.00
2023-05-06T02:45:44.496Z,653.00
2023-05-06T02:46:44.501Z,655.00
2023-05-06T02:47:44.571Z,657.00
2023-05-06T02:48:44.645Z,657.00
2023-05-06T02:49:44.684Z,658.00
2023-05-06T02:50:44.793Z,658.00
2023-05-06T02:51:44.819Z,658.00
2023-05-06T02:52:44.882Z,658.00
2023-05-06T02:53:44.941Z,661.00
2023-05-06T02:54:45.008Z,658.00
2023-05-06T02:55:45.099Z,655.00
2023-05-06T02:56:45.150Z,654.00
2023-05-06T02:57:45.168Z,650.00
2023-05-06T02:58:45.244Z,649.00
2023-05-06T02:59:45.280Z,651.00
2023-05-06T03:00:45.331Z,652.00
2023-05-06T03:01:45.425Z,652.00
2023-05-06T03:02:45.482Z,652.00
2023-05-06T03:03:45.669Z,653.00
2023-05-06T03:04:45.582Z,655.00
2023-05-06T03:05:45.625Z,655.00
2023-05-06T03:06:45.723Z,654.00
2023-05-06T03:07:45.771Z,654.00
2023-05-06T03:08:45.835Z,654.00
2023-05-06T03:09:45.932Z,655.00
2023-05-06T03:10:46.816Z,657.00
2023-05-06T03:11:46.051Z,657.00
2023-05-06T03:12:46.133Z,657.00
2023-05-06T03:13:46.212Z,656.00
2023-05-06T03:14:46.220Z,654.00
2023-05-06T03:15:46.288Z,653.00
2023-05-06T03:16:46.412Z,651.00
2023-05-06T03:17:46.405Z,653.00
2023-05-06T03:18:46.493Z,655.00
2023-05-06T03:19:46.606Z,655.00
2023-05-06T03:20:46.714Z,655.00
2023-05-06T03:21:46.644Z,655.00
2023-05-06T03:22:46.703Z,657.00
2023-05-06T03:23:46.702Z,656.00
2023-05-06T03:24:46.749Z,657.00
2023-05-06T03:25:46.812Z,659.00
2023-05-06T03:26:46.884Z,659.00
2023-05-06T03:27:46.937Z,656.00
2023-05-06T03:28:46.991Z,654.00
2023-05-06T03:29:47.093Z,655.00
2023-05-06T03:30:47.143Z,658.00
2023-05-06T03:31:47.232Z,656.00
2023-05-06T03:32:47.322Z,656.00
2023-05-06T03:33:47.279Z,657.00
2023-05-06T03:34:47.426Z,658.00
2023-05-06T03:35:47.443Z,659.00
2023-05-06T03:36:47.554Z,656.00
2023-05-06T03:37:47.527Z,657.00
2023-05-06T03:38:47.593Z,654.00
2023-05-06T03:39:47.624Z,654.00
2023-05-06T03:40:47.679Z,654.00
2023-05-06T03:41:47.732Z,657.00
2023-05-06T03:42:47.809Z,658.00
2023-05-06T03:43:47.891Z,658.00
2023-05-06T03:44:47.925Z,659.00
2023-05-06T03:45:47.998Z,661.00
2023-05-06T03:46:48.079Z,660.00
2023-05-06T03:47:48.402Z,659.00
2023-05-06T03:48:48.132Z,658.00
2023-05-06T03:49:48.180Z,656.00
2023-05-06T03:50:48.250Z,655.00
2023-05-06T03:51:48.343Z,655.00
2023-05-06T03:52:48.639Z,653.00
2023-05-06T03:53:48.460Z,650.00
2023-05-06T03:54:48.484Z,651.00
2023-05-06T03:55:48.561Z,651.00
2023-05-06T03:56:48.599Z,651.00
2023-05-06T03:57:48.662Z,652.00
2023-05-06T03:58:48.730Z,652.00
2023-05-06T03:59:48.794Z,654.00
2023-05-06T04:00:48.871Z,655.00
2023-05-06T04:01:48.942Z,654.00
2023-05-06T04:02:48.972Z,654.00
2023-05-06T04:03:49.100Z,654.00
2023-05-06T04:04:49.064Z,653.00
2023-05-06T04:05:49.171Z,652.00
2023-05-06T04:06:49.253Z,654.00
2023-05-06T04:07:49.257Z,653.00
2023-05-06T04:08:49.370Z,652.00
2023-05-06T04:09:49.350Z,651.00
2023-05-06T04:10:49.435Z,653.00
2023-05-06T04:11:49.477Z,654.00
2023-05-06T04:12:49.572Z,655.00
2023-05-06T04:13:49.640Z,657.00
2023-05-06T04:14:49.704Z,657.00
2023-05-06T04:15:49.751Z,657.00
2023-05-06T04:16:49.793Z,658.00
2023-05-06T04:17:49.859Z,657.00
2023-05-06T04:18:49.917Z,657.00
2023-05-06T04:19:49.986Z,656.00
2023-05-06T04:20:50.025Z,654.00
2023-05-06T04:21:50.077Z,655.00
2023-05-06T04:22:50.164Z,655.00
2023-05-06T04:23:50.227Z,656.00
2023-05-06T04:24:50.343Z,655.00
2023-05-06T04:25:50.369Z,657.00
2023-05-06T04:26:50.428Z,654.00
2023-05-06T04:27:50.492Z,654.00
2023-05-06T04:28:50.519Z,656.00
2023-05-06T04:29:50.593Z,656.00
2023-05-06T04:30:50.681Z,653.00
2023-05-06T04:31:50.784Z,654.00
2023-05-06T04:32:50.834Z,652.00
2023-05-06T04:33:50.848Z,653.00
2023-05-06T04:34:50.884Z,657.00
2023-05-06T04:35:50.956Z,658.00
2023-05-06T04:36:51.033Z,655.00
2023-05-06T04:37:51.069Z,654.00
2023-05-06T04:38:51.156Z,651.00
2023-05-06T04:39:51.250Z,652.00
2023-05-06T04:40:51.328Z,652.00
2023-05-06T04:41:51.356Z,652.00
2023-05-06T04:42:51.425Z,649.00
2023-05-06T04:43:51.473Z,649.00
2023-05-06T04:44:51.510Z,648.00
2023-05-06T04:45:51.623Z,647.00
2023-05-06T04:46:51.644Z,646.00
2023-05-06T04:47:51.755Z,646.00
2023-05-06T04:48:51.860Z,647.00
2023-05-06T04:49:51.845Z,648.00
2023-05-06T04:50:51.976Z,648.00
2023-05-06T04:51:52.033Z,646.00
2023-05-06T04:52:52.023Z,646.00
2023-05-06T04:53:52.098Z,646.00
2023-05-06T04:54:52.177Z,646.00
2023-05-06T04:55:52.246Z,647.00
2023-05-06T04:56:52.360Z,647.00
2023-05-06T04:57:52.336Z,647.00
2023-05-06T04:58:52.403Z,648.00
2023-05-06T04:59:52.450Z,648.00
2023-05-06T05:00:52.539Z,647.00
2023-05-06T05:01:52.634Z,648.00
2023-05-06T05:02:52.741Z,648.00
2023-05-06T05:03:52.722Z,648.00
2023-05-06T05:04:52.773Z,649.00
2023-05-06T05:05:52.782Z,648.00
2023-05-06T05:06:52.844Z,647.00
2023-05-06T05:07:52.935Z,645.00
2023-05-06T05:08:54.276Z,645.00
2023-05-06T05:09:53.044Z,645.00
2023-05-06T05:10:53.894Z,643.00
2023-05-06T05:11:53.163Z,643.00
2023-05-06T05:12:53.269Z,643.00
2023-05-06T05:13:54.316Z,645.00
2023-05-06T05:14:53.321Z,648.00
2023-05-06T05:15:53.286Z,649.00
2023-05-06T05:16:53.400Z,649.00
2023-05-06T05:17:53.337Z,648.00
2023-05-06T05:18:53.237Z,646.00
2023-05-06T05:19:53.230Z,645.00
2023-05-06T05:20:53.257Z,645.00
2023-05-06T05:21:53.229Z,647.00
2023-05-06T05:22:53.218Z,644.00
2023-05-06T05:23:53.230Z,642.00
2023-05-06T05:24:53.239Z,642.00
2023-05-06T05:25:53.185Z,644.00
2023-05-06T05:26:53.186Z,646.00
2023-05-06T05:27:53.191Z,648.00
2023-05-06T05:28:53.258Z,647.00
2023-05-06T05:29:53.214Z,647.00
2023-05-06T05:30:53.308Z,647.00
2023-05-06T05:31:53.182Z,646.00
2023-05-06T05:32:53.266Z,643.00
2023-05-06T05:33:53.411Z,642.00
2023-05-06T05:34:53.147Z,644.00
2023-05-06T05:35:53.139Z,645.00
2023-05-06T05:36:53.117Z,647.00
2023-05-06T05:37:53.135Z,648.00
2023-05-06T05:38:53.100Z,650.00
2023-05-06T05:39:53.120Z,649.00
2023-05-06T05:40:53.093Z,650.00
2023-05-06T05:41:53.095Z,649.00
2023-05-06T05:42:53.070Z,651.00
2023-05-06T05:43:53.128Z,651.00
2023-05-06T05:44:53.096Z,648.00
2023-05-06T05:45:53.098Z,648.00
2023-05-06T05:46:53.056Z,648.00
2023-05-06T05:47:53.110Z,649.00
2023-05-06T05:48:53.053Z,648.00
2023-05-06T05:49:53.079Z,649.00
2023-05-06T05:50:53.444Z,650.00
2023-05-06T05:51:53.230Z,649.00
2023-05-06T05:52:53.393Z,649.00
2023-05-06T05:53:53.377Z,648.00
2023-05-06T05:54:53.482Z,647.00
2023-05-06T05:55:54.220Z,647.00
2023-05-06T05:56:53.541Z,644.00
2023-05-06T05:57:53.585Z,646.00
2023-05-06T05:58:53.778Z,648.00
2023-05-06T05:59:53.697Z,649.00
2023-05-06T06:00:53.930Z,651.00
2023-05-06T06:01:53.834Z,651.00
2023-05-06T06:02:53.959Z,653.00
2023-05-06T06:03:54.739Z,652.00
2023-05-06T06:04:54.077Z,652.00
2023-05-06T06:05:54.281Z,653.00
2023-05-06T06:06:54.125Z,655.00
2023-05-06T06:07:54.214Z,656.00
2023-05-06T06:08:54.265Z,656.00
2023-05-06T06:09:54.326Z,655.00
2023-05-06T06:10:54.405Z,654.00
2023-05-06T06:11:54.490Z,654.00
2023-05-06T06:12:54.533Z,655.00
2023-05-06T06:13:54.558Z,654.00
2023-05-06T06:14:54.628Z,652.00
2023-05-06T06:15:54.735Z,652.00
2023-05-06T06:16:54.880Z,653.00
2023-05-06T06:17:54.910Z,654.00
2023-05-06T06:18:54.911Z,653.00
2023-05-06T06:19:54.931Z,653.00
2023-05-06T06:20:55.001Z,651.00
2023-05-06T06:21:55.023Z,650.00
2023-05-06T06:22:55.114Z,650.00
2023-05-06T06:23:55.208Z,653.00
2023-05-06T06:24:55.262Z,653.00
2023-05-06T06:25:55.296Z,655.00
2023-05-06T06:26:55.420Z,654.00
2023-05-06T06:27:55.430Z,652.00
2023-05-06T06:28:55.489Z,651.00
2023-05-06T06:29:55.580Z,652.00
2023-05-06T06:30:55.595Z,651.00
2023-05-06T06:31:55.709Z,651.00
2023-05-06T06:32:55.884Z,650.00
2023-05-06T06:33:55.793Z,648.00
2023-05-06T06:34:55.866Z,649.00
2023-05-06T06:35:56.918Z,652.00
2023-05-06T06:36:55.962Z,652.00
2023-05-06T06:37:56.087Z,654.00
2023-05-06T06:38:56.102Z,655.00
2023-05-06T06:39:56.151Z,653.00
2023-05-06T06:40:56.222Z,653.00
2023-05-06T06:41:56.272Z,653.00
2023-05-06T06:42:56.282Z,654.00
2023-05-06T06:43:56.408Z,654.00
2023-05-06T06:44:56.458Z,652.00
2023-05-06T06:45:56.590Z,651.00
2023-05-06T06:46:56.560Z,649.00
2023-05-06T06:47:56.689Z,648.00
2023-05-06T06:48:56.742Z,647.00
2023-05-06T06:49:56.743Z,644.00
2023-05-06T06:50:56.809Z,646.00
2023-05-06T06:51:56.883Z,647.00
2023-05-06T06:52:56.971Z,647.00
2023-05-06T06:53:57.039Z,647.00
2023-05-06T06:54:57.095Z,646.00
2023-05-06T06:55:57.140Z,647.00
2023-05-06T06:56:57.195Z,648.00
2023-05-06T06:57:57.257Z,646.00
2023-05-06T06:58:57.331Z,647.00
2023-05-06T06:59:57.422Z,644.00
2023-05-06T07:00:57.512Z,643.00
2023-05-06T07:01:57.471Z,643.00
2023-05-06T07:02:57.610Z,642.00
2023-05-06T07:03:57.945Z,641.00
2023-05-06T07:04:57.866Z,640.00
2023-05-06T07:05:57.757Z,641.00
2023-05-06T07:06:57.790Z,643.00
2023-05-06T07:07:57.882Z,644.00
2023-05-06T07:08:57.921Z,645.00
2023-05-06T07:09:57.995Z,645.00
2023-05-06T07:10:58.066Z,644.00
2023-05-06T07:11:58.091Z,644.00
2023-05-06T07:12:58.288Z,644.00
2023-05-06T07:13:58.192Z,643.00
2023-05-06T07:14:58.281Z,644.00
2023-05-06T07:15:58.334Z,643.00
2023-05-06T07:16:58.440Z,641.00
2023-05-06T07:17:58.518Z,641.00
2023-05-06T07:18:58.557Z,644.00
2023-05-06T07:19:58.613Z,645.00
2023-05-06T07:20:58.693Z,646.00
2023-05-06T07:21:58.708Z,643.00
2023-05-06T07:22:58.800Z,643.00
2023-05-06T07:23:58.826Z,644.00
2023-05-06T07:24:58.875Z,643.00
2023-05-06T07:25:58.978Z,643.00
2023-05-06T07:26:59.051Z,644.00
2023-05-06T07:27:59.105Z,644.00
2023-05-06T07:28:59.155Z,644.00
2023-05-06T07:29:59.209Z,646.00
2023-05-06T07:30:59.312Z,647.00
2023-05-06T07:31:59.327Z,650.00
2023-05-06T07:32:59.419Z,651.00
2023-05-06T07:33:59.441Z,652.00
2023-05-06T07:34:59.502Z,652.00
2023-05-06T07:35:59.606Z,650.00
2023-05-06T07:36:59.628Z,649.00
2023-05-06T07:37:59.740Z,648.00
2023-05-06T07:38:59.957Z,649.00
2023-05-06T07:39:59.821Z,646.00
2023-05-06T07:40:59.888Z,646.00
2023-05-06T07:41:59.942Z,645.00
2023-05-06T07:42:59.993Z,646.00
2023-05-06T07:44:00.150Z,649.00
2023-05-06T07:45:00.133Z,650.00
2023-05-06T07:46:00.192Z,648.00
2023-05-06T07:47:00.402Z,648.00
2023-05-06T07:48:00.336Z,648.00
2023-05-06T07:49:00.366Z,646.00
2023-05-06T07:50:00.446Z,645.00
2023-05-06T07:51:00.492Z,647.00
2023-05-06T07:52:00.561Z,646.00
2023-05-06T07:53:00.762Z,645.00
2023-05-06T07:54:00.692Z,644.00
2023-05-06T07:55:00.748Z,642.00
2023-05-06T07:56:00.799Z,641.00
2023-05-06T07:57:00.900Z,641.00
2023-05-06T07:58:00.942Z,642.00
2023-05-06T07:59:00.982Z,642.00
2023-05-06T08:00:01.052Z,643.00
2023-05-06T08:01:01.149Z,644.00
2023-05-06T08:02:01.361Z,644.00
2023-05-06T08:03:01.377Z,647.00
2023-05-06T08:04:01.400Z,646.00
2023-05-06T08:05:01.400Z,646.00
2023-05-06T08:06:01.429Z,646.00
2023-05-06T08:07:01.500Z,646.00
2023-05-06T08:08:01.559Z,645.00
2023-05-06T08:09:01.669Z,644.00
2023-05-06T08:10:01.669Z,642.00
2023-05-06T08:11:01.772Z,640.00
2023-05-06T08:12:01.786Z,641.00
2023-05-06T08:13:01.935Z,641.00
2023-05-06T08:14:01.946Z,641.00
2023-05-06T08:15:02.029Z,640.00
2023-05-06T08:16:02.053Z,641.00
2023-05-06T08:17:02.111Z,641.00
2023-05-06T08:18:10.250Z,641.00
2023-05-06T08:19:03.165Z,640.00
2023-05-06T08:20:02.186Z,638.00
2023-05-06T08:21:02.162Z,639.00
2023-05-06T08:22:02.123Z,639.00
2023-05-06T08:23:02.167Z,639.00
2023-05-06T08:24:02.118Z,639.00
2023-05-06T08:25:02.247Z,640.00
2023-05-06T08:26:02.148Z,640.00
2023-05-06T08:27:02.195Z,639.00
2023-05-06T08:28:02.225Z,643.00
2023-05-06T08:29:02.273Z,642.00
2023-05-06T08:30:02.377Z,643.00
2023-05-06T08:31:03.976Z,644.00
2023-05-06T08:32:02.474Z,643.00
2023-05-06T08:33:02.584Z,643.00
2023-05-06T08:34:02.532Z,642.00
2023-05-06T08:35:02.599Z,643.00
2023-05-06T08:36:02.670Z,644.00
2023-05-06T08:37:02.706Z,643.00
2023-05-06T08:38:02.770Z,643.00
2023-05-06T08:39:02.877Z,642.00
2023-05-06T08:40:02.889Z,640.00
2023-05-06T08:41:03.208Z,641.00
2023-05-06T08:42:03.039Z,641.00
2023-05-06T08:43:03.091Z,640.00
2023-05-06T08:44:03.144Z,642.00
2023-05-06T08:45:03.302Z,643.00
2023-05-06T08:46:03.322Z,644.00
2023-05-06T08:47:03.311Z,644.00
2023-05-06T08:48:03.499Z,642.00
2023-05-06T08:49:03.463Z,641.00
2023-05-06T08:50:03.508Z,636.00
2023-05-06T08:51:03.584Z,635.00
2023-05-06T08:52:03.607Z,635.00
2023-05-06T08:53:03.724Z,634.00
2023-05-06T08:54:03.750Z,635.00
2023-05-06T08:55:03.806Z,635.00
2023-05-06T08:56:03.841Z,638.00
2023-05-06T08:57:03.906Z,638.00
2023-05-06T08:58:03.998Z,640.00
2023-05-06T08:59:04.059Z,641.00
2023-05-06T09:00:04.084Z,643.00
2023-05-06T09:01:04.194Z,643.00
2023-05-06T09:02:04.269Z,642.00
2023-05-06T09:03:04.356Z,640.00
2023-05-06T09:04:04.303Z,638.00
2023-05-06T09:05:04.423Z,636.00
2023-05-06T09:06:04.390Z,637.00
2023-05-06T09:07:04.460Z,637.00
2023-05-06T09:08:04.543Z,636.00
2023-05-06T09:09:04.590Z,635.00
2023-05-06T09:10:04.670Z,636.00
2023-05-06T09:11:04.942Z,636.00
2023-05-06T09:12:04.771Z,634.00
2023-05-06T09:13:04.957Z,634.00
2023-05-06T09:14:04.922Z,633.00
2023-05-06T09:15:04.948Z,631.00
2023-05-06T09:16:05.478Z,630.00
2023-05-06T09:17:05.141Z,628.00
2023-05-06T09:18:05.228Z,628.00
2023-05-06T09:19:05.195Z,628.00
2023-05-06T09:20:05.287Z,626.00
2023-05-06T09:21:05.344Z,626.00
2023-05-06T09:22:05.400Z,627.00
2023-05-06T09:23:05.455Z,625.00
2023-05-06T09:24:05.528Z,626.00
2023-05-06T09:25:05.574Z,628.00
2023-05-06T09:26:05.690Z,629.00
2023-05-06T09:27:05.715Z,628.00
2023-05-06T09:28:05.773Z,630.00
2023-05-06T09:29:05.920Z,631.00
2023-05-06T09:30:05.925Z,634.00
2023-05-06T09:31:06.011Z,634.00
2023-05-06T09:32:06.034Z,633.00
2023-05-06T09:33:06.133Z,631.00
2023-05-06T09:34:06.140Z,630.00
2023-05-06T09:35:06.216Z,629.00
2023-05-06T09:36:06.261Z,628.00
2023-05-06T09:37:06.347Z,625.00
2023-05-06T09:38:07.254Z,625.00
2023-05-06T09:39:06.483Z,626.00
2023-05-06T09:40:06.505Z,625.00
2023-05-06T09:41:06.567Z,626.00
2023-05-06T09:42:06.643Z,624.00
2023-05-06T09:43:06.720Z,622.00
2023-05-06T09:44:06.828Z,623.00
2023-05-06T09:45:06.942Z,623.00
2023-05-06T09:46:07.029Z,621.00
2023-05-06T09:47:07.021Z,621.00
2023-05-06T09:48:07.139Z,621.00
2023-05-06T09:49:07.111Z,619.00
2023-05-06T09:50:07.167Z,618.00
2023-05-06T09:51:07.262Z,619.00
2023-05-06T09:52:07.299Z,618.00
2023-05-06T09:53:07.378Z,616.00
2023-05-06T09:54:07.439Z,612.00
2023-05-06T09:55:07.517Z,612.00
2023-05-06T09:56:07.603Z,612.00
2023-05-06T09:57:07.586Z,609.00
2023-05-06T09:58:07.647Z,609.00
2023-05-06T09:59:07.750Z,609.00
2023-05-06T10:00:07.783Z,609.00
2023-05-06T10:01:08.001Z,609.00
2023-05-06T10:02:07.941Z,607.00
2023-05-06T10:03:08.184Z,604.00
2023-05-06T10:04:08.214Z,605.00
2023-05-06T10:05:08.214Z,603.00
2023-05-06T10:06:08.105Z,604.00
2023-05-06T10:07:08.149Z,604.00
2023-05-06T10:08:08.229Z,600.00
2023-05-06T10:09:08.353Z,603.00
2023-05-06T10:10:08.389Z,602.00
2023-05-06T10:11:08.439Z,602.00
2023-05-06T10:12:08.496Z,603.00
2023-05-06T10:13:08.563Z,603.00
2023-05-06T10:14:08.592Z,605.00
2023-05-06T10:15:08.797Z,605.00
2023-05-06T10:16:08.811Z,604.00
2023-05-06T10:17:08.802Z,602.00
2023-05-06T10:18:08.851Z,603.00
2023-05-06T10:19:08.884Z,603.00
2023-05-06T10:20:08.975Z,605.00
2023-05-06T10:21:09.028Z,603.00
2023-05-06T10:22:09.108Z,602.00
2023-05-06T10:23:09.155Z,601.00
2023-05-06T10:24:09.242Z,600.00
2023-05-06T10:25:09.429Z,601.00
2023-05-06T10:26:09.330Z,602.00
2023-05-06T10:27:09.361Z,603.00
2023-05-06T10:28:12.463Z,605.00
2023-05-06T10:29:10.433Z,604.00
2023-05-06T10:30:09.403Z,607.00
2023-05-06T10:31:09.467Z,606.00
2023-05-06T10:32:09.410Z,608.00
2023-05-06T10:33:09.401Z,606.00
2023-05-06T10:34:09.514Z,605.00
2023-05-06T10:35:09.580Z,605.00
2023-05-06T10:36:09.345Z,606.00
2023-05-06T10:37:09.320Z,606.00
2023-05-06T10:38:09.387Z,606.00
2023-05-06T10:39:09.431Z,605.00
2023-05-06T10:40:09.435Z,604.00
2023-05-06T10:41:09.497Z,604.00
2023-05-06T10:42:09.563Z,601.00
2023-05-06T10:43:09.648Z,598.00
2023-05-06T10:44:09.669Z,597.00
2023-05-06T10:45:09.953Z,597.00
2023-05-06T10:46:09.859Z,596.00
2023-05-06T10:47:09.937Z,596.00
2023-05-06T10:48:10.000Z,597.00
2023-05-06T10:49:09.967Z,598.00
2023-05-06T10:50:10.010Z,596.00
2023-05-06T10:51:10.078Z,595.00
2023-05-06T10:52:10.060Z,597.00
2023-05-06T10:53:10.154Z,597.00
2023-05-06T10:54:10.214Z,601.00
2023-05-06T10:55:10.405Z,604.00
2023-05-06T10:56:10.346Z,603.00
2023-05-06T10:57:10.415Z,602.00
2023-05-06T10:58:10.466Z,603.00
2023-05-06T10:59:10.610Z,601.00
2023-05-06T11:00:10.573Z,602.00
2023-05-06T11:01:10.798Z,604.00
2023-05-06T11:02:10.764Z,606.00
2023-05-06T11:03:10.871Z,606.00
2023-05-06T11:04:10.885Z,606.00
2023-05-06T11:05:11.141Z,607.00
2023-05-06T11:06:10.958Z,606.00
2023-05-06T11:07:11.017Z,607.00
2023-05-06T11:08:11.077Z,607.00
2023-05-06T11:09:11.150Z,606.00
2023-05-06T11:10:11.242Z,607.00
2023-05-06T11:11:11.243Z,605.00
2023-05-06T11:12:11.314Z,606.00
2023-05-06T11:13:11.476Z,606.00
2023-05-06T11:14:11.474Z,606.00
2023-05-06T11:15:11.645Z,607.00
2023-05-06T11:16:11.597Z,604.00
2023-05-06T11:17:11.726Z,602.00
2023-05-06T11:18:11.666Z,601.00
2023-05-06T11:19:11.748Z,600.00
2023-05-06T11:20:11.978Z,600.00
2023-05-06T11:21:11.927Z,601.00
2023-05-06T11:22:11.910Z,602.00
2023-05-06T11:23:12.007Z,602.00
2023-05-06T11:24:12.063Z,602.00
2023-05-06T11:25:12.117Z,601.00
2023-05-06T11:26:12.187Z,599.00
2023-05-06T11:27:12.247Z,595.00
2023-05-06T11:28:12.292Z,597.00
2023-05-06T11:29:12.381Z,595.00
2023-05-06T11:30:12.610Z,596.00
2023-05-06T11:31:12.561Z,599.00
2023-05-06T11:32:12.549Z,600.00
2023-05-06T11:33:12.598Z,599.00
2023-05-06T11:34:12.690Z,600.00
2023-05-06T11:35:12.716Z,600.00
2023-05-06T11:36:12.808Z,602.00
2023-05-06T11:37:12.842Z,603.00
2023-05-06T11:38:12.912Z,602.00
2023-05-06T11:39:12.990Z,604.00
2023-05-06T11:40:13.118Z,602.00
2023-05-06T11:41:13.091Z,602.00
2023-05-06T11:42:13.124Z,601.00
2023-05-06T11:43:13.188Z,600.00
2023-05-06T11:44:13.251Z,600.00
2023-05-06T11:45:13.301Z,600.00
2023-05-06T11:46:13.444Z,599.00
2023-05-06T11:47:13.445Z,599.00
2023-05-06T11:48:13.459Z,598.00
2023-05-06T11:49:13.531Z,598.00
2023-05-06T11:50:13.636Z,598.00
2023-05-06T11:51:14.591Z,599.00
2023-05-06T11:52:13.747Z,599.00
2023-05-06T11:53:13.809Z,596.00
2023-05-06T11:54:13.823Z,594.00
2023-05-06T11:55:13.890Z,593.00
2023-05-06T11:56:13.963Z,592.00
2023-05-06T11:57:14.005Z,590.00
2023-05-06T11:58:14.059Z,588.00
2023-05-06T11:59:14.132Z,589.00
2023-05-06T12:00:14.283Z,592.00
2023-05-06T12:01:14.267Z,591.00
2023-05-06T12:02:14.430Z,591.00
2023-05-06T12:03:14.483Z,589.00
2023-05-06T12:04:14.532Z,591.00
2023-05-06T12:05:14.505Z,593.00
2023-05-06T12:06:14.621Z,593.00
2023-05-06T12:07:14.644Z,594.00
2023-05-06T12:08:26.703Z,594.00
2023-05-06T12:09:15.699Z,594.00
2023-05-06T12:10:14.662Z,595.00
2023-05-06T12:11:14.649Z,595.00
2023-05-06T12:12:14.677Z,597.00
2023-05-06T12:13:14.678Z,596.00
2023-05-06T12:14:14.655Z,596.00
2023-05-06T12:15:14.623Z,594.00
2023-05-06T12:16:14.695Z,594.00
2023-05-06T12:17:14.628Z,596.00
2023-05-06T12:18:14.679Z,599.00
2023-05-06T12:19:15.006Z,600.00
2023-05-06T12:20:14.784Z,600.00
2023-05-06T12:21:14.835Z,600.00
2023-05-06T12:22:14.922Z,599.00
2023-05-06T12:23:14.992Z,600.00
2023-05-06T12:24:15.091Z,601.00
2023-05-06T12:25:15.082Z,600.00
2023-05-06T12:26:15.170Z,602.00
2023-05-06T12:27:15.356Z,600.00
2023-05-06T12:28:15.273Z,601.00
2023-05-06T12:29:15.361Z,596.00